sensor_id;sensor_type;location;lat;lon;timestamp;P1;durP1;ratioP1;P2;durP2;ratioP2
6195;SDS011;3131;42.630;23.382;2023-02-15T00:00:21;45.57;;;22.70;;
6195;SDS011;3131;42.630;23.382;2023-02-15T00:02:49;41.40;;;21.03;;
6195;SDS011;3131;42.630;23.382;2023-02-15T00:05:17;44.57;;;21.63;;
6195;SDS011;3131;42.630;23.382;2023-02-15T00:07:45;39.50;;;21.03;;
6195;SDS011;3131;42.630;23.382;2023-02-15T00:10:12;38.50;;;19.60;;
6195;SDS011;3131;42.630;23.382;2023-02-15T00:12:40;50.60;;;23.27;;
6195;SDS011;3131;42.630;23.382;2023-02-15T00:15:08;49.80;;;24.00;;
6195;SDS011;3131;42.630;23.382;2023-02-15T00:17:37;49.97;;;22.77;;
6195;SDS011;3131;42.630;23.382;2023-02-15T00:20:06;43.27;;;22.90;;
6195;SDS011;3131;42.630;23.382;2023-02-15T00:22:34;27.07;;;14.73;;
6195;SDS011;3131;42.630;23.382;2023-02-15T00:25:01;33.00;;;16.87;;
6195;SDS011;3131;42.630;23.382;2023-02-15T00:27:29;48.43;;;24.67;;
6195;SDS011;3131;42.630;23.382;2023-02-15T00:29:57;37.93;;;17.80;;
6195;SDS011;3131;42.630;23.382;2023-02-15T00:32:24;36.27;;;19.07;;
6195;SDS011;3131;42.630;23.382;2023-02-15T00:34:52;39.90;;;18.10;;
6195;SDS011;3131;42.630;23.382;2023-02-15T00:37:19;43.10;;;20.77;;
6195;SDS011;3131;42.630;23.382;2023-02-15T00:39:47;50.00;;;24.17;;
6195;SDS011;3131;42.630;23.382;2023-02-15T00:42:15;54.43;;;23.87;;
6195;SDS011;3131;42.630;23.382;2023-02-15T00:44:43;33.00;;;16.13;;
6195;SDS011;3131;42.630;23.382;2023-02-15T00:47:11;43.77;;;21.03;;
6195;SDS011;3131;42.630;23.382;2023-02-15T00:49:38;45.30;;;21.77;;
6195;SDS011;3131;42.630;23.382;2023-02-15T00:52:06;44.47;;;22.50;;
6195;SDS011;3131;42.630;23.382;2023-02-15T00:54:34;46.33;;;21.00;;
6195;SDS011;3131;42.630;23.382;2023-02-15T00:57:01;38.17;;;16.43;;
6195;SDS011;3131;42.630;23.382;2023-02-15T00:59:29;40.77;;;20.67;;
6195;SDS011;3131;42.630;23.382;2023-02-15T01:01:56;42.87;;;20.40;;
6195;SDS011;3131;42.630;23.382;2023-02-15T01:04:24;48.57;;;21.90;;
6195;SDS011;3131;42.630;23.382;2023-02-15T01:06:52;50.23;;;24.27;;
6195;SDS011;3131;42.630;23.382;2023-02-15T01:09:20;43.03;;;21.87;;
6195;SDS011;3131;42.630;23.382;2023-02-15T01:11:48;42.50;;;21.40;;
6195;SDS011;3131;42.630;23.382;2023-02-15T01:14:16;48.83;;;22.17;;
6195;SDS011;3131;42.630;23.382;2023-02-15T01:16:43;41.63;;;20.03;;
6195;SDS011;3131;42.630;23.382;2023-02-15T01:19:11;31.00;;;16.70;;
6195;SDS011;3131;42.630;23.382;2023-02-15T01:21:39;40.60;;;19.27;;
6195;SDS011;3131;42.630;23.382;2023-02-15T01:24:11;48.17;;;21.43;;
6195;SDS011;3131;42.630;23.382;2023-02-15T01:26:39;41.03;;;21.37;;
6195;SDS011;3131;42.630;23.382;2023-02-15T01:29:06;33.17;;;17.83;;
6195;SDS011;3131;42.630;23.382;2023-02-15T01:31:34;38.63;;;16.43;;
6195;SDS011;3131;42.630;23.382;2023-02-15T01:34:02;29.70;;;15.97;;
6195;SDS011;3131;42.630;23.382;2023-02-15T01:36:30;29.53;;;16.27;;
6195;SDS011;3131;42.630;23.382;2023-02-15T01:38:58;38.27;;;17.67;;
6195;SDS011;3131;42.630;23.382;2023-02-15T01:41:26;39.80;;;19.87;;
6195;SDS011;3131;42.630;23.382;2023-02-15T01:43:54;43.63;;;20.80;;
6195;SDS011;3131;42.630;23.382;2023-02-15T01:46:23;38.20;;;19.07;;
6195;SDS011;3131;42.630;23.382;2023-02-15T01:48:53;36.90;;;17.40;;
6195;SDS011;3131;42.630;23.382;2023-02-15T01:51:21;38.80;;;19.03;;
6195;SDS011;3131;42.630;23.382;2023-02-15T01:53:51;39.87;;;20.90;;
6195;SDS011;3131;42.630;23.382;2023-02-15T01:56:19;43.80;;;21.47;;
6195;SDS011;3131;42.630;23.382;2023-02-15T01:58:48;42.03;;;19.17;;
6195;SDS011;3131;42.630;23.382;2023-02-15T02:01:16;40.23;;;18.17;;
6195;SDS011;3131;42.630;23.382;2023-02-15T02:03:46;43.87;;;22.37;;
6195;SDS011;3131;42.630;23.382;2023-02-15T02:06:14;29.10;;;13.93;;
6195;SDS011;3131;42.630;23.382;2023-02-15T02:08:42;40.87;;;20.67;;
6195;SDS011;3131;42.630;23.382;2023-02-15T02:11:10;42.77;;;21.73;;
6195;SDS011;3131;42.630;23.382;2023-02-15T02:13:38;42.53;;;21.20;;
6195;SDS011;3131;42.630;23.382;2023-02-15T02:16:08;40.97;;;21.83;;
6195;SDS011;3131;42.630;23.382;2023-02-15T02:18:38;36.53;;;19.10;;
6195;SDS011;3131;42.630;23.382;2023-02-15T02:21:19;41.87;;;21.47;;
6195;SDS011;3131;42.630;23.382;2023-02-15T02:24:01;37.20;;;19.67;;
6195;SDS011;3131;42.630;23.382;2023-02-15T02:35:01;34.07;;;17.13;;
6195;SDS011;3131;42.630;23.382;2023-02-15T02:37:30;36.07;;;18.03;;
6195;SDS011;3131;42.630;23.382;2023-02-15T02:40:04;36.50;;;19.03;;
6195;SDS011;3131;42.630;23.382;2023-02-15T02:42:32;40.83;;;21.33;;
6195;SDS011;3131;42.630;23.382;2023-02-15T02:44:59;41.70;;;19.90;;
6195;SDS011;3131;42.630;23.382;2023-02-15T02:47:29;35.70;;;17.43;;
6195;SDS011;3131;42.630;23.382;2023-02-15T02:49:59;35.90;;;18.40;;
6195;SDS011;3131;42.630;23.382;2023-02-15T02:52:37;39.03;;;18.77;;
6195;SDS011;3131;42.630;23.382;2023-02-15T02:55:07;31.33;;;15.03;;
6195;SDS011;3131;42.630;23.382;2023-02-15T02:57:35;33.10;;;14.97;;
6195;SDS011;3131;42.630;23.382;2023-02-15T03:00:05;33.23;;;17.37;;
6195;SDS011;3131;42.630;23.382;2023-02-15T03:02:35;39.50;;;21.03;;
6195;SDS011;3131;42.630;23.382;2023-02-15T03:05:05;29.73;;;13.93;;
6195;SDS011;3131;42.630;23.382;2023-02-15T03:07:33;40.30;;;20.23;;
6195;SDS011;3131;42.630;23.382;2023-02-15T03:10:03;41.37;;;20.60;;
6195;SDS011;3131;42.630;23.382;2023-02-15T03:12:31;33.33;;;15.90;;
6195;SDS011;3131;42.630;23.382;2023-02-15T03:15:00;29.40;;;14.67;;
6195;SDS011;3131;42.630;23.382;2023-02-15T03:17:29;46.33;;;19.67;;
6195;SDS011;3131;42.630;23.382;2023-02-15T03:19:58;30.63;;;16.57;;
6195;SDS011;3131;42.630;23.382;2023-02-15T03:22:28;37.37;;;19.50;;
6195;SDS011;3131;42.630;23.382;2023-02-15T03:24:57;32.67;;;16.30;;
6195;SDS011;3131;42.630;23.382;2023-02-15T03:27:26;33.30;;;15.80;;
6195;SDS011;3131;42.630;23.382;2023-02-15T03:29:55;30.23;;;17.03;;
6195;SDS011;3131;42.630;23.382;2023-02-15T03:32:23;40.40;;;19.77;;
6195;SDS011;3131;42.630;23.382;2023-02-15T03:34:53;31.07;;;17.03;;
6195;SDS011;3131;42.630;23.382;2023-02-15T03:37:22;35.83;;;14.17;;
6195;SDS011;3131;42.630;23.382;2023-02-15T03:39:51;27.20;;;13.23;;
6195;SDS011;3131;42.630;23.382;2023-02-15T03:42:19;22.33;;;12.87;;
6195;SDS011;3131;42.630;23.382;2023-02-15T03:44:49;37.20;;;16.93;;
6195;SDS011;3131;42.630;23.382;2023-02-15T03:47:18;26.77;;;14.47;;
6195;SDS011;3131;42.630;23.382;2023-02-15T03:49:48;27.13;;;15.33;;
6195;SDS011;3131;42.630;23.382;2023-02-15T03:52:15;31.60;;;16.27;;
6195;SDS011;3131;42.630;23.382;2023-02-15T03:54:43;36.47;;;16.63;;
6195;SDS011;3131;42.630;23.382;2023-02-15T03:57:14;32.33;;;17.53;;
6195;SDS011;3131;42.630;23.382;2023-02-15T04:00:00;33.10;;;18.27;;
6195;SDS011;3131;42.630;23.382;2023-02-15T04:02:51;40.00;;;19.30;;
6195;SDS011;3131;42.630;23.382;2023-02-15T04:05:18;21.07;;;11.97;;
6195;SDS011;3131;42.630;23.382;2023-02-15T04:07:46;35.93;;;16.93;;
6195;SDS011;3131;42.630;23.382;2023-02-15T04:10:13;29.03;;;14.97;;
6195;SDS011;3131;42.630;23.382;2023-02-15T04:12:59;34.23;;;17.00;;
6195;SDS011;3131;42.630;23.382;2023-02-15T04:23:35;33.43;;;16.97;;
6195;SDS011;3131;42.630;23.382;2023-02-15T04:26:20;35.33;;;16.47;;
6195;SDS011;3131;42.630;23.382;2023-02-15T04:28:48;35.97;;;18.27;;
6195;SDS011;3131;42.630;23.382;2023-02-15T04:31:15;31.57;;;17.50;;
6195;SDS011;3131;42.630;23.382;2023-02-15T04:33:43;28.83;;;16.40;;
6195;SDS011;3131;42.630;23.382;2023-02-15T04:36:11;36.13;;;17.43;;
6195;SDS011;3131;42.630;23.382;2023-02-15T04:38:38;29.50;;;14.60;;
6195;SDS011;3131;42.630;23.382;2023-02-15T04:41:06;27.57;;;13.67;;
6195;SDS011;3131;42.630;23.382;2023-02-15T04:43:34;36.80;;;18.83;;
6195;SDS011;3131;42.630;23.382;2023-02-15T04:46:01;28.10;;;17.40;;
6195;SDS011;3131;42.630;23.382;2023-02-15T04:48:29;25.03;;;15.23;;
6195;SDS011;3131;42.630;23.382;2023-02-15T04:50:57;28.37;;;14.60;;
6195;SDS011;3131;42.630;23.382;2023-02-15T04:53:24;24.60;;;12.77;;
6195;SDS011;3131;42.630;23.382;2023-02-15T04:55:52;34.70;;;19.23;;
6195;SDS011;3131;42.630;23.382;2023-02-15T04:58:20;33.07;;;14.40;;
6195;SDS011;3131;42.630;23.382;2023-02-15T05:00:48;37.83;;;18.17;;
6195;SDS011;3131;42.630;23.382;2023-02-15T05:03:15;43.53;;;18.50;;
6195;SDS011;3131;42.630;23.382;2023-02-15T05:05:43;21.00;;;11.50;;
6195;SDS011;3131;42.630;23.382;2023-02-15T05:08:11;37.67;;;18.63;;
6195;SDS011;3131;42.630;23.382;2023-02-15T05:10:38;34.43;;;18.13;;
6195;SDS011;3131;42.630;23.382;2023-02-15T05:13:06;35.93;;;14.97;;
6195;SDS011;3131;42.630;23.382;2023-02-15T05:15:33;34.33;;;17.03;;
6195;SDS011;3131;42.630;23.382;2023-02-15T05:18:01;37.43;;;19.40;;
6195;SDS011;3131;42.630;23.382;2023-02-15T05:20:29;39.07;;;19.37;;
6195;SDS011;3131;42.630;23.382;2023-02-15T05:22:57;32.40;;;14.10;;
6195;SDS011;3131;42.630;23.382;2023-02-15T05:25:24;31.67;;;16.53;;
6195;SDS011;3131;42.630;23.382;2023-02-15T05:28:10;40.90;;;19.50;;
6195;SDS011;3131;42.630;23.382;2023-02-15T05:30:47;35.37;;;15.83;;
6195;SDS011;3131;42.630;23.382;2023-02-15T05:33:14;36.87;;;19.77;;
6195;SDS011;3131;42.630;23.382;2023-02-15T05:35:42;23.67;;;12.83;;
6195;SDS011;3131;42.630;23.382;2023-02-15T05:38:10;37.40;;;17.07;;
6195;SDS011;3131;42.630;23.382;2023-02-15T05:40:38;21.73;;;12.73;;
6195;SDS011;3131;42.630;23.382;2023-02-15T05:43:05;33.00;;;15.87;;
6195;SDS011;3131;42.630;23.382;2023-02-15T05:45:33;38.60;;;18.27;;
6195;SDS011;3131;42.630;23.382;2023-02-15T05:48:01;33.43;;;14.47;;
6195;SDS011;3131;42.630;23.382;2023-02-15T05:50:28;34.60;;;18.07;;
6195;SDS011;3131;42.630;23.382;2023-02-15T05:52:56;34.80;;;15.70;;
6195;SDS011;3131;42.630;23.382;2023-02-15T05:55:24;39.00;;;20.47;;
6195;SDS011;3131;42.630;23.382;2023-02-15T05:57:51;31.93;;;16.80;;
6195;SDS011;3131;42.630;23.382;2023-02-15T06:00:20;32.37;;;16.37;;
6195;SDS011;3131;42.630;23.382;2023-02-15T06:02:47;43.80;;;20.30;;
6195;SDS011;3131;42.630;23.382;2023-02-15T06:05:15;40.87;;;20.00;;
6195;SDS011;3131;42.630;23.382;2023-02-15T06:07:43;38.40;;;17.87;;
6195;SDS011;3131;42.630;23.382;2023-02-15T06:10:11;26.60;;;14.43;;
6195;SDS011;3131;42.630;23.382;2023-02-15T06:12:39;35.43;;;19.17;;
6195;SDS011;3131;42.630;23.382;2023-02-15T06:15:07;26.80;;;14.83;;
6195;SDS011;3131;42.630;23.382;2023-02-15T06:17:35;36.67;;;18.77;;
6195;SDS011;3131;42.630;23.382;2023-02-15T06:20:04;38.70;;;19.30;;
6195;SDS011;3131;42.630;23.382;2023-02-15T06:22:31;38.10;;;19.93;;
6195;SDS011;3131;42.630;23.382;2023-02-15T06:24:59;33.03;;;16.43;;
6195;SDS011;3131;42.630;23.382;2023-02-15T06:27:27;32.47;;;17.90;;
6195;SDS011;3131;42.630;23.382;2023-02-15T06:29:54;40.77;;;18.67;;
6195;SDS011;3131;42.630;23.382;2023-02-15T06:32:22;32.67;;;15.00;;
6195;SDS011;3131;42.630;23.382;2023-02-15T06:34:50;25.50;;;13.37;;
6195;SDS011;3131;42.630;23.382;2023-02-15T06:37:18;34.17;;;15.13;;
6195;SDS011;3131;42.630;23.382;2023-02-15T06:39:45;38.87;;;18.53;;
6195;SDS011;3131;42.630;23.382;2023-02-15T06:42:13;25.80;;;13.80;;
6195;SDS011;3131;42.630;23.382;2023-02-15T06:44:41;30.23;;;14.93;;
6195;SDS011;3131;42.630;23.382;2023-02-15T06:47:08;32.90;;;16.47;;
6195;SDS011;3131;42.630;23.382;2023-02-15T06:49:36;23.97;;;14.13;;
6195;SDS011;3131;42.630;23.382;2023-02-15T06:52:04;35.30;;;18.50;;
6195;SDS011;3131;42.630;23.382;2023-02-15T06:54:32;36.07;;;17.87;;
6195;SDS011;3131;42.630;23.382;2023-02-15T06:57:00;32.77;;;17.67;;
6195;SDS011;3131;42.630;23.382;2023-02-15T06:59:27;28.70;;;14.07;;
6195;SDS011;3131;42.630;23.382;2023-02-15T07:01:55;21.90;;;10.30;;
6195;SDS011;3131;42.630;23.382;2023-02-15T07:04:23;27.90;;;14.83;;
6195;SDS011;3131;42.630;23.382;2023-02-15T07:06:50;23.87;;;13.80;;
6195;SDS011;3131;42.630;23.382;2023-02-15T07:09:18;30.50;;;15.70;;
6195;SDS011;3131;42.630;23.382;2023-02-15T07:11:45;16.33;;;10.63;;
6195;SDS011;3131;42.630;23.382;2023-02-15T07:14:31;28.67;;;14.27;;
6195;SDS011;3131;42.630;23.382;2023-02-15T07:16:58;26.47;;;14.13;;
6195;SDS011;3131;42.630;23.382;2023-02-15T07:19:26;24.93;;;13.03;;
6195;SDS011;3131;42.630;23.382;2023-02-15T07:21:54;25.03;;;12.83;;
6195;SDS011;3131;42.630;23.382;2023-02-15T07:24:22;20.90;;;11.40;;
6195;SDS011;3131;42.630;23.382;2023-02-15T07:26:50;18.57;;;9.93;;
6195;SDS011;3131;42.630;23.382;2023-02-15T07:29:17;19.40;;;9.80;;
6195;SDS011;3131;42.630;23.382;2023-02-15T07:31:45;22.20;;;10.63;;
6195;SDS011;3131;42.630;23.382;2023-02-15T07:34:12;16.17;;;8.30;;
6195;SDS011;3131;42.630;23.382;2023-02-15T07:36:40;19.93;;;10.60;;
6195;SDS011;3131;42.630;23.382;2023-02-15T07:39:08;21.57;;;11.37;;
6195;SDS011;3131;42.630;23.382;2023-02-15T07:41:35;20.27;;;10.70;;
6195;SDS011;3131;42.630;23.382;2023-02-15T07:44:03;20.57;;;10.73;;
6195;SDS011;3131;42.630;23.382;2023-02-15T07:46:31;20.30;;;10.20;;
6195;SDS011;3131;42.630;23.382;2023-02-15T07:48:59;22.63;;;10.83;;
6195;SDS011;3131;42.630;23.382;2023-02-15T07:51:26;25.73;;;14.60;;
6195;SDS011;3131;42.630;23.382;2023-02-15T07:53:54;23.03;;;13.27;;
6195;SDS011;3131;42.630;23.382;2023-02-15T07:56:22;23.87;;;13.43;;
6195;SDS011;3131;42.630;23.382;2023-02-15T07:58:49;29.30;;;14.23;;
6195;SDS011;3131;42.630;23.382;2023-02-15T08:01:22;30.00;;;15.60;;
6195;SDS011;3131;42.630;23.382;2023-02-15T08:03:50;25.17;;;12.87;;
6195;SDS011;3131;42.630;23.382;2023-02-15T08:06:18;19.43;;;11.43;;
6195;SDS011;3131;42.630;23.382;2023-02-15T08:08:46;37.40;;;14.63;;
6195;SDS011;3131;42.630;23.382;2023-02-15T08:11:18;20.83;;;12.77;;
6195;SDS011;3131;42.630;23.382;2023-02-15T08:14:14;27.63;;;14.37;;
6195;SDS011;3131;42.630;23.382;2023-02-15T08:16:42;33.73;;;13.43;;
6195;SDS011;3131;42.630;23.382;2023-02-15T08:19:10;58.27;;;15.77;;
6195;SDS011;3131;42.630;23.382;2023-02-15T08:21:39;29.00;;;14.70;;
6195;SDS011;3131;42.630;23.382;2023-02-15T08:24:07;27.13;;;14.00;;
6195;SDS011;3131;42.630;23.382;2023-02-15T08:26:35;23.93;;;13.00;;
6195;SDS011;3131;42.630;23.382;2023-02-15T08:29:04;19.13;;;12.20;;
6195;SDS011;3131;42.630;23.382;2023-02-15T08:31:33;23.27;;;12.70;;
6195;SDS011;3131;42.630;23.382;2023-02-15T08:34:01;28.67;;;12.53;;
6195;SDS011;3131;42.630;23.382;2023-02-15T08:36:29;21.20;;;10.37;;
6195;SDS011;3131;42.630;23.382;2023-02-15T08:38:58;25.23;;;13.63;;
6195;SDS011;3131;42.630;23.382;2023-02-15T08:41:26;22.60;;;13.17;;
6195;SDS011;3131;42.630;23.382;2023-02-15T08:43:55;33.60;;;14.23;;
6195;SDS011;3131;42.630;23.382;2023-02-15T08:46:24;23.30;;;14.33;;
6195;SDS011;3131;42.630;23.382;2023-02-15T08:48:52;25.60;;;14.60;;
6195;SDS011;3131;42.630;23.382;2023-02-15T08:51:21;22.07;;;11.37;;
6195;SDS011;3131;42.630;23.382;2023-02-15T08:53:49;19.03;;;12.17;;
6195;SDS011;3131;42.630;23.382;2023-02-15T08:56:17;27.17;;;13.63;;
6195;SDS011;3131;42.630;23.382;2023-02-15T08:58:45;26.67;;;13.73;;
6195;SDS011;3131;42.630;23.382;2023-02-15T09:01:13;38.60;;;13.07;;
6195;SDS011;3131;42.630;23.382;2023-02-15T09:03:43;25.93;;;13.97;;
6195;SDS011;3131;42.630;23.382;2023-02-15T09:06:10;30.27;;;14.50;;
6195;SDS011;3131;42.630;23.382;2023-02-15T09:08:38;54.00;;;16.67;;
6195;SDS011;3131;42.630;23.382;2023-02-15T09:11:07;25.53;;;14.47;;
6195;SDS011;3131;42.630;23.382;2023-02-15T09:13:35;20.10;;;11.73;;
6195;SDS011;3131;42.630;23.382;2023-02-15T09:16:03;20.30;;;11.00;;
6195;SDS011;3131;42.630;23.382;2023-02-15T09:18:32;25.97;;;13.10;;
6195;SDS011;3131;42.630;23.382;2023-02-15T09:21:04;39.07;;;12.73;;
6195;SDS011;3131;42.630;23.382;2023-02-15T09:23:32;27.03;;;12.60;;
6195;SDS011;3131;42.630;23.382;2023-02-15T09:26:02;16.00;;;8.80;;
6195;SDS011;3131;42.630;23.382;2023-02-15T09:28:30;22.97;;;12.17;;
6195;SDS011;3131;42.630;23.382;2023-02-15T09:31:04;56.83;;;16.97;;
6195;SDS011;3131;42.630;23.382;2023-02-15T09:33:33;24.33;;;13.03;;
6195;SDS011;3131;42.630;23.382;2023-02-15T09:36:01;21.67;;;12.27;;
6195;SDS011;3131;42.630;23.382;2023-02-15T09:38:29;27.33;;;12.10;;
6195;SDS011;3131;42.630;23.382;2023-02-15T09:41:00;22.90;;;13.53;;
6195;SDS011;3131;42.630;23.382;2023-02-15T09:43:30;26.90;;;14.33;;
6195;SDS011;3131;42.630;23.382;2023-02-15T09:46:04;15.40;;;10.40;;
6195;SDS011;3131;42.630;23.382;2023-02-15T09:48:41;22.60;;;13.23;;
6195;SDS011;3131;42.630;23.382;2023-02-15T09:53:59;19.37;;;12.73;;
6195;SDS011;3131;42.630;23.382;2023-02-15T09:56:28;25.13;;;15.07;;
6195;SDS011;3131;42.630;23.382;2023-02-15T09:58:57;20.10;;;12.07;;
6195;SDS011;3131;42.630;23.382;2023-02-15T10:01:26;24.30;;;14.37;;
6195;SDS011;3131;42.630;23.382;2023-02-15T10:03:59;23.73;;;12.83;;
6195;SDS011;3131;42.630;23.382;2023-02-15T10:06:36;28.00;;;14.87;;
6195;SDS011;3131;42.630;23.382;2023-02-15T10:09:09;26.73;;;13.10;;
6195;SDS011;3131;42.630;23.382;2023-02-15T10:11:41;27.10;;;14.70;;
6195;SDS011;3131;42.630;23.382;2023-02-15T10:17:02;27.10;;;14.93;;
6195;SDS011;3131;42.630;23.382;2023-02-15T10:19:32;25.33;;;13.40;;
6195;SDS011;3131;42.630;23.382;2023-02-15T10:22:02;24.33;;;13.87;;
6195;SDS011;3131;42.630;23.382;2023-02-15T10:27:30;21.90;;;13.13;;
6195;SDS011;3131;42.630;23.382;2023-02-15T10:30:03;24.70;;;16.43;;
6195;SDS011;3131;42.630;23.382;2023-02-15T10:32:28;28.73;;;15.27;;
6195;SDS011;3131;42.630;23.382;2023-02-15T10:34:58;22.27;;;14.43;;
6195;SDS011;3131;42.630;23.382;2023-02-15T10:37:54;21.67;;;14.47;;
6195;SDS011;3131;42.630;23.382;2023-02-15T10:40:26;23.50;;;12.57;;
6195;SDS011;3131;42.630;23.382;2023-02-15T10:42:58;30.93;;;15.53;;
6195;SDS011;3131;42.630;23.382;2023-02-15T10:45:28;30.53;;;16.03;;
6195;SDS011;3131;42.630;23.382;2023-02-15T10:48:00;27.37;;;15.37;;
6195;SDS011;3131;42.630;23.382;2023-02-15T10:50:32;24.67;;;12.80;;
6195;SDS011;3131;42.630;23.382;2023-02-15T10:53:03;21.53;;;13.13;;
6195;SDS011;3131;42.630;23.382;2023-02-15T10:55:33;19.60;;;12.80;;
6195;SDS011;3131;42.630;23.382;2023-02-15T10:58:02;17.60;;;12.20;;
6195;SDS011;3131;42.630;23.382;2023-02-15T11:00:30;16.53;;;10.93;;
6195;SDS011;3131;42.630;23.382;2023-02-15T11:03:02;17.60;;;11.37;;
6195;SDS011;3131;42.630;23.382;2023-02-15T11:05:35;17.70;;;10.07;;
6195;SDS011;3131;42.630;23.382;2023-02-15T11:08:03;18.87;;;12.27;;
6195;SDS011;3131;42.630;23.382;2023-02-15T11:10:33;19.40;;;12.53;;
6195;SDS011;3131;42.630;23.382;2023-02-15T11:13:02;27.23;;;13.33;;
6195;SDS011;3131;42.630;23.382;2023-02-15T11:15:31;24.13;;;15.43;;
6195;SDS011;3131;42.630;23.382;2023-02-15T11:18:02;32.50;;;17.30;;
6195;SDS011;3131;42.630;23.382;2023-02-15T11:20:30;19.47;;;12.00;;
6195;SDS011;3131;42.630;23.382;2023-02-15T11:22:58;27.00;;;14.27;;
6195;SDS011;3131;42.630;23.382;2023-02-15T11:25:29;22.23;;;13.43;;
6195;SDS011;3131;42.630;23.382;2023-02-15T11:27:57;23.03;;;12.27;;
6195;SDS011;3131;42.630;23.382;2023-02-15T11:30:27;32.13;;;17.83;;
6195;SDS011;3131;42.630;23.382;2023-02-15T11:32:55;28.07;;;15.40;;
6195;SDS011;3131;42.630;23.382;2023-02-15T11:35:26;22.43;;;13.77;;
6195;SDS011;3131;42.630;23.382;2023-02-15T11:37:54;24.47;;;14.90;;
6195;SDS011;3131;42.630;23.382;2023-02-15T11:40:23;21.27;;;12.63;;
6195;SDS011;3131;42.630;23.382;2023-02-15T11:42:53;29.13;;;14.87;;
6195;SDS011;3131;42.630;23.382;2023-02-15T11:45:22;20.47;;;12.53;;
6195;SDS011;3131;42.630;23.382;2023-02-15T11:47:51;21.47;;;13.20;;
6195;SDS011;3131;42.630;23.382;2023-02-15T11:50:21;25.73;;;14.03;;
6195;SDS011;3131;42.630;23.382;2023-02-15T11:52:49;26.43;;;11.60;;
6195;SDS011;3131;42.630;23.382;2023-02-15T11:55:21;22.13;;;14.73;;
6195;SDS011;3131;42.630;23.382;2023-02-15T11:57:48;22.37;;;13.27;;
6195;SDS011;3131;42.630;23.382;2023-02-15T12:00:26;26.70;;;15.27;;
6195;SDS011;3131;42.630;23.382;2023-02-15T12:02:46;23.60;;;15.10;;
6195;SDS011;3131;42.630;23.382;2023-02-15T12:05:16;25.50;;;13.77;;
6195;SDS011;3131;42.630;23.382;2023-02-15T12:07:46;24.33;;;13.50;;
6195;SDS011;3131;42.630;23.382;2023-02-15T12:10:17;24.93;;;14.87;;
6195;SDS011;3131;42.630;23.382;2023-02-15T12:12:46;27.07;;;14.77;;
6195;SDS011;3131;42.630;23.382;2023-02-15T12:15:13;23.83;;;14.57;;
6195;SDS011;3131;42.630;23.382;2023-02-15T12:17:41;24.47;;;11.47;;
6195;SDS011;3131;42.630;23.382;2023-02-15T12:20:21;22.50;;;14.10;;
6195;SDS011;3131;42.630;23.382;2023-02-15T12:22:50;23.13;;;14.30;;
6195;SDS011;3131;42.630;23.382;2023-02-15T12:25:21;21.93;;;13.57;;
6195;SDS011;3131;42.630;23.382;2023-02-15T12:27:49;26.20;;;15.47;;
6195;SDS011;3131;42.630;23.382;2023-02-15T12:30:18;26.00;;;16.50;;
6195;SDS011;3131;42.630;23.382;2023-02-15T12:32:47;28.03;;;16.83;;
6195;SDS011;3131;42.630;23.382;2023-02-15T12:35:26;30.17;;;17.30;;
6195;SDS011;3131;42.630;23.382;2023-02-15T12:37:52;23.80;;;14.67;;
6195;SDS011;3131;42.630;23.382;2023-02-15T12:40:21;30.13;;;16.83;;
6195;SDS011;3131;42.630;23.382;2023-02-15T12:42:49;26.77;;;16.87;;
6195;SDS011;3131;42.630;23.382;2023-02-15T12:45:21;26.07;;;16.43;;
6195;SDS011;3131;42.630;23.382;2023-02-15T12:48:07;26.60;;;16.70;;
6195;SDS011;3131;42.630;23.382;2023-02-15T12:50:23;27.27;;;17.73;;
6195;SDS011;3131;42.630;23.382;2023-02-15T12:53:06;26.47;;;16.10;;
6195;SDS011;3131;42.630;23.382;2023-02-15T12:55:23;25.83;;;16.40;;
6195;SDS011;3131;42.630;23.382;2023-02-15T12:58:05;30.83;;;16.83;;
6195;SDS011;3131;42.630;23.382;2023-02-15T13:00:33;23.17;;;14.33;;
6195;SDS011;3131;42.630;23.382;2023-02-15T13:03:01;24.17;;;15.73;;
6195;SDS011;3131;42.630;23.382;2023-02-15T13:05:31;29.00;;;16.57;;
6195;SDS011;3131;42.630;23.382;2023-02-15T13:08:01;25.83;;;16.60;;
6195;SDS011;3131;42.630;23.382;2023-02-15T13:10:29;28.90;;;16.43;;
6195;SDS011;3131;42.630;23.382;2023-02-15T13:12:58;28.80;;;15.93;;
6195;SDS011;3131;42.630;23.382;2023-02-15T13:15:30;27.37;;;17.50;;
6195;SDS011;3131;42.630;23.382;2023-02-15T13:17:58;29.87;;;16.27;;
6195;SDS011;3131;42.630;23.382;2023-02-15T13:20:27;24.77;;;15.47;;
6195;SDS011;3131;42.630;23.382;2023-02-15T13:22:57;25.67;;;15.80;;
6195;SDS011;3131;42.630;23.382;2023-02-15T13:25:26;29.83;;;17.53;;
6195;SDS011;3131;42.630;23.382;2023-02-15T13:27:57;29.70;;;18.23;;
6195;SDS011;3131;42.630;23.382;2023-02-15T13:30:25;26.23;;;17.57;;
6195;SDS011;3131;42.630;23.382;2023-02-15T13:32:54;28.40;;;15.40;;
6195;SDS011;3131;42.630;23.382;2023-02-15T13:35:23;24.27;;;15.50;;
6195;SDS011;3131;42.630;23.382;2023-02-15T13:38:10;25.33;;;16.53;;
6195;SDS011;3131;42.630;23.382;2023-02-15T13:40:40;25.17;;;15.90;;
6195;SDS011;3131;42.630;23.382;2023-02-15T13:43:12;27.30;;;16.03;;
6195;SDS011;3131;42.630;23.382;2023-02-15T13:45:41;28.93;;;15.60;;
6195;SDS011;3131;42.630;23.382;2023-02-15T13:48:13;24.17;;;15.33;;
6195;SDS011;3131;42.630;23.382;2023-02-15T13:51:02;28.23;;;16.83;;
6195;SDS011;3131;42.630;23.382;2023-02-15T13:56:17;26.33;;;16.83;;
6195;SDS011;3131;42.630;23.382;2023-02-15T14:01:34;34.77;;;17.93;;
6195;SDS011;3131;42.630;23.382;2023-02-15T14:04:24;36.70;;;17.60;;
6195;SDS011;3131;42.630;23.382;2023-02-15T14:09:46;27.67;;;16.63;;
6195;SDS011;3131;42.630;23.382;2023-02-15T14:12:19;31.87;;;16.47;;
6195;SDS011;3131;42.630;23.382;2023-02-15T14:14:55;28.00;;;15.63;;
6195;SDS011;3131;42.630;23.382;2023-02-15T14:17:23;26.70;;;15.57;;
6195;SDS011;3131;42.630;23.382;2023-02-15T14:19:52;28.23;;;16.67;;
6195;SDS011;3131;42.630;23.382;2023-02-15T14:22:22;29.93;;;16.73;;
6195;SDS011;3131;42.630;23.382;2023-02-15T14:24:54;30.70;;;18.73;;
6195;SDS011;3131;42.630;23.382;2023-02-15T14:27:22;30.70;;;17.87;;
6195;SDS011;3131;42.630;23.382;2023-02-15T14:29:51;23.30;;;14.80;;
6195;SDS011;3131;42.630;23.382;2023-02-15T14:32:23;29.63;;;17.03;;
6195;SDS011;3131;42.630;23.382;2023-02-15T14:34:52;19.87;;;12.00;;
6195;SDS011;3131;42.630;23.382;2023-02-15T14:37:22;29.10;;;17.07;;
6195;SDS011;3131;42.630;23.382;2023-02-15T14:39:52;31.07;;;17.90;;
6195;SDS011;3131;42.630;23.382;2023-02-15T14:42:39;28.10;;;15.87;;
6195;SDS011;3131;42.630;23.382;2023-02-15T14:45:12;30.00;;;16.23;;
6195;SDS011;3131;42.630;23.382;2023-02-15T14:47:38;28.23;;;16.53;;
6195;SDS011;3131;42.630;23.382;2023-02-15T14:50:35;30.60;;;18.60;;
6195;SDS011;3131;42.630;23.382;2023-02-15T14:53:17;22.23;;;12.10;;
6195;SDS011;3131;42.630;23.382;2023-02-15T14:55:44;34.27;;;16.73;;
6195;SDS011;3131;42.630;23.382;2023-02-15T14:58:12;33.20;;;18.17;;
6195;SDS011;3131;42.630;23.382;2023-02-15T15:00:41;34.93;;;19.17;;
6195;SDS011;3131;42.630;23.382;2023-02-15T15:03:16;29.53;;;17.17;;
6195;SDS011;3131;42.630;23.382;2023-02-15T15:05:48;29.90;;;17.83;;
6195;SDS011;3131;42.630;23.382;2023-02-15T15:08:22;32.97;;;18.60;;
6195;SDS011;3131;42.630;23.382;2023-02-15T15:10:50;35.27;;;20.40;;
6195;SDS011;3131;42.630;23.382;2023-02-15T15:18:49;32.07;;;18.80;;
6195;SDS011;3131;42.630;23.382;2023-02-15T15:24:04;36.17;;;17.83;;
6195;SDS011;3131;42.630;23.382;2023-02-15T15:26:32;36.23;;;19.63;;
6195;SDS011;3131;42.630;23.382;2023-02-15T15:29:02;33.20;;;18.37;;
6195;SDS011;3131;42.630;23.382;2023-02-15T15:31:36;29.87;;;17.27;;